sensor_id;sensor_type;location;lat;lon;timestamp;P1;durP1;ratioP1;P2;durP2;ratioP2
18879;SDS011;9572;52.378;13.404;2024-01-27T00:00:47;15.30;;;2.70;;
18879;SDS011;9572;52.378;13.404;2024-01-27T00:03:14;15.23;;;2.27;;
18879;SDS011;9572;52.378;13.404;2024-01-27T00:05:42;18.83;;;2.93;;
18879;SDS011;9572;52.378;13.404;2024-01-27T00:08:09;19.20;;;3.27;;
18879;SDS011;9572;52.378;13.404;2024-01-27T00:10:36;17.17;;;2.33;;
18879;SDS011;9572;52.378;13.404;2024-01-27T00:13:03;22.37;;;3.03;;
18879;SDS011;9572;52.378;13.404;2024-01-27T00:15:30;13.73;;;2.43;;
18879;SDS011;9572;52.378;13.404;2024-01-27T00:17:57;18.77;;;2.67;;
18879;SDS011;9572;52.378;13.404;2024-01-27T00:20:23;16.57;;;2.57;;
18879;SDS011;9572;52.378;13.404;2024-01-27T00:22:52;17.80;;;2.83;;
18879;SDS011;9572;52.378;13.404;2024-01-27T00:25:19;22.87;;;2.70;;
18879;SDS011;9572;52.378;13.404;2024-01-27T00:27:46;13.93;;;2.77;;
18879;SDS011;9572;52.378;13.404;2024-01-27T00:30:13;21.50;;;2.80;;
18879;SDS011;9572;52.378;13.404;2024-01-27T00:32:40;15.67;;;2.40;;
18879;SDS011;9572;52.378;13.404;2024-01-27T00:35:07;9.03;;;1.90;;
18879;SDS011;9572;52.378;13.404;2024-01-27T00:37:34;8.57;;;1.80;;
18879;SDS011;9572;52.378;13.404;2024-01-27T00:40:03;20.00;;;3.10;;
18879;SDS011;9572;52.378;13.404;2024-01-27T00:42:30;17.57;;;2.23;;
18879;SDS011;9572;52.378;13.404;2024-01-27T00:44:57;24.23;;;3.00;;
18879;SDS011;9572;52.378;13.404;2024-01-27T00:47:24;9.80;;;2.33;;
18879;SDS011;9572;52.378;13.404;2024-01-27T00:49:51;10.07;;;1.97;;
18879;SDS011;9572;52.378;13.404;2024-01-27T00:52:19;12.40;;;1.87;;
18879;SDS011;9572;52.378;13.404;2024-01-27T00:54:46;20.07;;;2.47;;
18879;SDS011;9572;52.378;13.404;2024-01-27T00:57:14;14.17;;;2.33;;
18879;SDS011;9572;52.378;13.404;2024-01-27T00:59:41;15.60;;;2.63;;
18879;SDS011;9572;52.378;13.404;2024-01-27T01:02:08;16.70;;;2.00;;
18879;SDS011;9572;52.378;13.404;2024-01-27T01:04:35;19.93;;;2.77;;
18879;SDS011;9572;52.378;13.404;2024-01-27T01:07:02;12.47;;;1.93;;
18879;SDS011;9572;52.378;13.404;2024-01-27T01:09:29;22.10;;;2.80;;
18879;SDS011;9572;52.378;13.404;2024-01-27T01:11:56;16.53;;;2.43;;
18879;SDS011;9572;52.378;13.404;2024-01-27T01:14:24;13.23;;;2.57;;
18879;SDS011;9572;52.378;13.404;2024-01-27T01:16:51;23.57;;;2.43;;
18879;SDS011;9572;52.378;13.404;2024-01-27T01:19:18;22.57;;;2.53;;
18879;SDS011;9572;52.378;13.404;2024-01-27T01:21:45;17.03;;;2.73;;
18879;SDS011;9572;52.378;13.404;2024-01-27T01:24:12;17.23;;;2.90;;
18879;SDS011;9572;52.378;13.404;2024-01-27T01:26:39;14.03;;;2.57;;
18879;SDS011;9572;52.378;13.404;2024-01-27T01:29:06;18.83;;;2.93;;
18879;SDS011;9572;52.378;13.404;2024-01-27T01:31:34;11.10;;;2.10;;
18879;SDS011;9572;52.378;13.404;2024-01-27T01:34:01;20.03;;;3.17;;
18879;SDS011;9572;52.378;13.404;2024-01-27T01:36:27;21.87;;;3.23;;
18879;SDS011;9572;52.378;13.404;2024-01-27T01:38:54;13.83;;;2.77;;
18879;SDS011;9572;52.378;13.404;2024-01-27T01:41:21;13.83;;;2.33;;
18879;SDS011;9572;52.378;13.404;2024-01-27T01:43:48;18.90;;;2.70;;
18879;SDS011;9572;52.378;13.404;2024-01-27T01:46:15;18.83;;;2.57;;
18879;SDS011;9572;52.378;13.404;2024-01-27T01:48:43;17.30;;;2.63;;
18879;SDS011;9572;52.378;13.404;2024-01-27T01:51:11;15.97;;;2.63;;
18879;SDS011;9572;52.378;13.404;2024-01-27T01:53:38;19.57;;;3.13;;
18879;SDS011;9572;52.378;13.404;2024-01-27T01:56:06;18.03;;;2.63;;
18879;SDS011;9572;52.378;13.404;2024-01-27T01:58:33;17.70;;;2.87;;
18879;SDS011;9572;52.378;13.404;2024-01-27T02:01:00;16.83;;;2.67;;
18879;SDS011;9572;52.378;13.404;2024-01-27T02:03:28;13.97;;;2.10;;
18879;SDS011;9572;52.378;13.404;2024-01-27T02:05:56;17.83;;;2.17;;
18879;SDS011;9572;52.378;13.404;2024-01-27T02:08:23;17.90;;;2.67;;
18879;SDS011;9572;52.378;13.404;2024-01-27T02:10:50;18.77;;;3.00;;
18879;SDS011;9572;52.378;13.404;2024-01-27T02:13:17;20.07;;;2.37;;
18879;SDS011;9572;52.378;13.404;2024-01-27T02:15:45;15.80;;;2.70;;
18879;SDS011;9572;52.378;13.404;2024-01-27T02:18:12;16.60;;;2.80;;
18879;SDS011;9572;52.378;13.404;2024-01-27T02:20:39;25.67;;;2.90;;
18879;SDS011;9572;52.378;13.404;2024-01-27T02:23:08;17.93;;;2.90;;
18879;SDS011;9572;52.378;13.404;2024-01-27T02:25:36;19.30;;;2.47;;
18879;SDS011;9572;52.378;13.404;2024-01-27T02:28:04;17.03;;;2.60;;
18879;SDS011;9572;52.378;13.404;2024-01-27T02:30:31;16.07;;;2.33;;
18879;SDS011;9572;52.378;13.404;2024-01-27T02:32:58;11.87;;;2.30;;
18879;SDS011;9572;52.378;13.404;2024-01-27T02:35:25;18.80;;;3.27;;
18879;SDS011;9572;52.378;13.404;2024-01-27T02:37:52;20.93;;;2.90;;
18879;SDS011;9572;52.378;13.404;2024-01-27T02:40:19;19.20;;;2.80;;
18879;SDS011;9572;52.378;13.404;2024-01-27T02:42:48;15.13;;;2.50;;
18879;SDS011;9572;52.378;13.404;2024-01-27T02:45:15;18.40;;;2.47;;
18879;SDS011;9572;52.378;13.404;2024-01-27T02:47:42;13.63;;;2.30;;
18879;SDS011;9572;52.378;13.404;2024-01-27T02:50:09;12.40;;;2.17;;
18879;SDS011;9572;52.378;13.404;2024-01-27T02:52:36;11.47;;;2.17;;
18879;SDS011;9572;52.378;13.404;2024-01-27T02:55:03;15.03;;;2.43;;
18879;SDS011;9572;52.378;13.404;2024-01-27T02:57:30;11.80;;;2.07;;
18879;SDS011;9572;52.378;13.404;2024-01-27T02:59:58;15.20;;;2.10;;
18879;SDS011;9572;52.378;13.404;2024-01-27T03:02:25;9.27;;;1.90;;
18879;SDS011;9572;52.378;13.404;2024-01-27T03:04:52;17.50;;;2.23;;
18879;SDS011;9572;52.378;13.404;2024-01-27T03:07:19;16.77;;;2.40;;
18879;SDS011;9572;52.378;13.404;2024-01-27T03:09:46;18.17;;;2.97;;
18879;SDS011;9572;52.378;13.404;2024-01-27T03:12:13;17.87;;;2.90;;
18879;SDS011;9572;52.378;13.404;2024-01-27T03:14:40;22.57;;;3.00;;
18879;SDS011;9572;52.378;13.404;2024-01-27T03:17:09;19.97;;;2.87;;
18879;SDS011;9572;52.378;13.404;2024-01-27T03:19:36;19.03;;;2.90;;
18879;SDS011;9572;52.378;13.404;2024-01-27T03:22:03;16.20;;;2.23;;
18879;SDS011;9572;52.378;13.404;2024-01-27T03:24:30;23.27;;;2.53;;
18879;SDS011;9572;52.378;13.404;2024-01-27T03:26:56;19.83;;;3.13;;
18879;SDS011;9572;52.378;13.404;2024-01-27T03:29:23;13.30;;;2.13;;
18879;SDS011;9572;52.378;13.404;2024-01-27T03:31:50;20.10;;;3.23;;
18879;SDS011;9572;52.378;13.404;2024-01-27T03:34:19;16.20;;;2.73;;
18879;SDS011;9572;52.378;13.404;2024-01-27T03:36:50;16.53;;;2.87;;
18879;SDS011;9572;52.378;13.404;2024-01-27T03:39:16;22.70;;;3.77;;
18879;SDS011;9572;52.378;13.404;2024-01-27T03:41:43;15.70;;;2.57;;
18879;SDS011;9572;52.378;13.404;2024-01-27T03:44:10;17.40;;;2.50;;
18879;SDS011;9572;52.378;13.404;2024-01-27T03:46:37;19.47;;;2.87;;
18879;SDS011;9572;52.378;13.404;2024-01-27T03:49:04;18.43;;;3.17;;
18879;SDS011;9572;52.378;13.404;2024-01-27T03:51:32;24.07;;;2.77;;
18879;SDS011;9572;52.378;13.404;2024-01-27T03:53:59;23.83;;;2.67;;
18879;SDS011;9572;52.378;13.404;2024-01-27T03:56:26;19.87;;;2.47;;
18879;SDS011;9572;52.378;13.404;2024-01-27T03:58:53;28.80;;;2.67;;
18879;SDS011;9572;52.378;13.404;2024-01-27T04:01:20;27.60;;;3.07;;
18879;SDS011;9572;52.378;13.404;2024-01-27T04:03:47;17.13;;;2.20;;
18879;SDS011;9572;52.378;13.404;2024-01-27T04:06:14;19.60;;;2.43;;
18879;SDS011;9572;52.378;13.404;2024-01-27T04:08:42;20.13;;;2.77;;
18879;SDS011;9572;52.378;13.404;2024-01-27T04:11:18;20.00;;;2.20;;
18879;SDS011;9572;52.378;13.404;2024-01-27T04:13:45;16.33;;;3.13;;
18879;SDS011;9572;52.378;13.404;2024-01-27T04:16:12;21.23;;;3.03;;
18879;SDS011;9572;52.378;13.404;2024-01-27T04:18:39;18.27;;;2.87;;
18879;SDS011;9572;52.378;13.404;2024-01-27T04:21:06;16.17;;;2.07;;
18879;SDS011;9572;52.378;13.404;2024-01-27T04:23:33;16.33;;;2.77;;
18879;SDS011;9572;52.378;13.404;2024-01-27T04:26:01;14.33;;;2.20;;
18879;SDS011;9572;52.378;13.404;2024-01-27T04:28:28;17.73;;;2.43;;
18879;SDS011;9572;52.378;13.404;2024-01-27T04:30:56;18.43;;;2.67;;
18879;SDS011;9572;52.378;13.404;2024-01-27T04:33:23;20.70;;;3.03;;
18879;SDS011;9572;52.378;13.404;2024-01-27T04:35:50;22.37;;;2.73;;
18879;SDS011;9572;52.378;13.404;2024-01-27T04:38:17;11.40;;;2.03;;
18879;SDS011;9572;52.378;13.404;2024-01-27T04:40:44;21.47;;;2.70;;
18879;SDS011;9572;52.378;13.404;2024-01-27T04:43:15;13.57;;;2.10;;
18879;SDS011;9572;52.378;13.404;2024-01-27T04:45:42;18.97;;;2.67;;
18879;SDS011;9572;52.378;13.404;2024-01-27T04:48:09;16.73;;;2.30;;
18879;SDS011;9572;52.378;13.404;2024-01-27T04:50:36;22.97;;;2.70;;
18879;SDS011;9572;52.378;13.404;2024-01-27T04:53:03;20.33;;;2.60;;
18879;SDS011;9572;52.378;13.404;2024-01-27T04:55:30;19.97;;;2.87;;
18879;SDS011;9572;52.378;13.404;2024-01-27T04:57:57;19.50;;;2.63;;
18879;SDS011;9572;52.378;13.404;2024-01-27T05:00:26;18.30;;;2.67;;
18879;SDS011;9572;52.378;13.404;2024-01-27T05:02:53;18.17;;;2.70;;
18879;SDS011;9572;52.378;13.404;2024-01-27T05:05:20;20.50;;;2.67;;
18879;SDS011;9572;52.378;13.404;2024-01-27T05:07:47;19.83;;;2.60;;
18879;SDS011;9572;52.378;13.404;2024-01-27T05:10:14;18.07;;;2.43;;
18879;SDS011;9572;52.378;13.404;2024-01-27T05:12:42;20.03;;;3.00;;
18879;SDS011;9572;52.378;13.404;2024-01-27T05:15:09;18.83;;;2.80;;
18879;SDS011;9572;52.378;13.404;2024-01-27T05:17:38;17.30;;;2.80;;
18879;SDS011;9572;52.378;13.404;2024-01-27T05:20:05;17.63;;;2.63;;
18879;SDS011;9572;52.378;13.404;2024-01-27T05:22:33;16.93;;;2.43;;
18879;SDS011;9572;52.378;13.404;2024-01-27T05:25:00;21.90;;;3.30;;
18879;SDS011;9572;52.378;13.404;2024-01-27T05:27:29;17.53;;;2.80;;
18879;SDS011;9572;52.378;13.404;2024-01-27T05:29:56;22.83;;;2.70;;
18879;SDS011;9572;52.378;13.404;2024-01-27T05:32:23;21.43;;;2.63;;
18879;SDS011;9572;52.378;13.404;2024-01-27T05:34:51;19.50;;;2.80;;
18879;SDS011;9572;52.378;13.404;2024-01-27T05:37:18;14.70;;;2.60;;
18879;SDS011;9572;52.378;13.404;2024-01-27T05:39:45;15.97;;;2.90;;
18879;SDS011;9572;52.378;13.404;2024-01-27T05:42:12;15.40;;;2.47;;
18879;SDS011;9572;52.378;13.404;2024-01-27T05:44:39;18.13;;;2.60;;
18879;SDS011;9572;52.378;13.404;2024-01-27T05:47:06;20.13;;;2.87;;
18879;SDS011;9572;52.378;13.404;2024-01-27T05:49:35;17.83;;;2.40;;
18879;SDS011;9572;52.378;13.404;2024-01-27T05:52:04;19.73;;;2.73;;
18879;SDS011;9572;52.378;13.404;2024-01-27T05:54:31;16.67;;;2.57;;
18879;SDS011;9572;52.378;13.404;2024-01-27T05:56:58;17.07;;;2.73;;
18879;SDS011;9572;52.378;13.404;2024-01-27T05:59:25;14.87;;;2.57;;
18879;SDS011;9572;52.378;13.404;2024-01-27T06:01:52;21.10;;;2.57;;
18879;SDS011;9572;52.378;13.404;2024-01-27T06:04:19;21.70;;;3.07;;
18879;SDS011;9572;52.378;13.404;2024-01-27T06:06:46;17.37;;;3.10;;
18879;SDS011;9572;52.378;13.404;2024-01-27T06:09:14;20.73;;;2.30;;
18879;SDS011;9572;52.378;13.404;2024-01-27T06:11:41;23.27;;;2.80;;
18879;SDS011;9572;52.378;13.404;2024-01-27T06:14:08;16.10;;;2.47;;
18879;SDS011;9572;52.378;13.404;2024-01-27T06:16:35;17.23;;;2.50;;
18879;SDS011;9572;52.378;13.404;2024-01-27T06:19:02;17.13;;;2.50;;
18879;SDS011;9572;52.378;13.404;2024-01-27T06:21:28;14.53;;;2.00;;
18879;SDS011;9572;52.378;13.404;2024-01-27T06:23:55;21.57;;;2.80;;
18879;SDS011;9572;52.378;13.404;2024-01-27T06:26:24;21.97;;;2.80;;
18879;SDS011;9572;52.378;13.404;2024-01-27T06:28:51;22.77;;;2.80;;
18879;SDS011;9572;52.378;13.404;2024-01-27T06:31:17;13.80;;;2.43;;
18879;SDS011;9572;52.378;13.404;2024-01-27T06:33:44;18.17;;;2.70;;
18879;SDS011;9572;52.378;13.404;2024-01-27T06:36:11;24.47;;;2.93;;
18879;SDS011;9572;52.378;13.404;2024-01-27T06:38:38;19.83;;;2.60;;
18879;SDS011;9572;52.378;13.404;2024-01-27T06:41:05;17.13;;;2.73;;
18879;SDS011;9572;52.378;13.404;2024-01-27T06:43:33;19.50;;;3.17;;
18879;SDS011;9572;52.378;13.404;2024-01-27T06:46:00;17.60;;;2.37;;
18879;SDS011;9572;52.378;13.404;2024-01-27T06:48:27;13.67;;;2.47;;
18879;SDS011;9572;52.378;13.404;2024-01-27T06:50:54;15.13;;;2.47;;
18879;SDS011;9572;52.378;13.404;2024-01-27T06:53:21;17.87;;;2.57;;
18879;SDS011;9572;52.378;13.404;2024-01-27T06:55:47;18.47;;;2.67;;
18879;SDS011;9572;52.378;13.404;2024-01-27T06:58:14;27.50;;;3.00;;
18879;SDS011;9572;52.378;13.404;2024-01-27T07:00:43;12.50;;;2.70;;
18879;SDS011;9572;52.378;13.404;2024-01-27T07:03:10;16.20;;;2.80;;
18879;SDS011;9572;52.378;13.404;2024-01-27T07:05:37;26.70;;;4.13;;
18879;SDS011;9572;52.378;13.404;2024-01-27T07:08:06;15.20;;;2.67;;
18879;SDS011;9572;52.378;13.404;2024-01-27T07:10:33;18.33;;;2.97;;
18879;SDS011;9572;52.378;13.404;2024-01-27T07:13:00;21.13;;;3.20;;
18879;SDS011;9572;52.378;13.404;2024-01-27T07:15:27;12.17;;;3.03;;
18879;SDS011;9572;52.378;13.404;2024-01-27T07:17:55;23.83;;;4.37;;
18879;SDS011;9572;52.378;13.404;2024-01-27T07:20:22;17.73;;;2.67;;
18879;SDS011;9572;52.378;13.404;2024-01-27T07:22:49;22.40;;;2.80;;
18879;SDS011;9572;52.378;13.404;2024-01-27T07:25:16;16.97;;;2.80;;
18879;SDS011;9572;52.378;13.404;2024-01-27T07:27:43;19.43;;;2.80;;
18879;SDS011;9572;52.378;13.404;2024-01-27T07:30:11;18.67;;;3.23;;
18879;SDS011;9572;52.378;13.404;2024-01-27T07:32:38;19.77;;;3.27;;
18879;SDS011;9572;52.378;13.404;2024-01-27T07:35:07;14.70;;;2.70;;
18879;SDS011;9572;52.378;13.404;2024-01-27T07:37:34;18.53;;;2.87;;
18879;SDS011;9572;52.378;13.404;2024-01-27T07:40:01;9.37;;;2.20;;
18879;SDS011;9572;52.378;13.404;2024-01-27T07:42:28;16.43;;;2.53;;
18879;SDS011;9572;52.378;13.404;2024-01-27T07:44:55;15.13;;;2.73;;
18879;SDS011;9572;52.378;13.404;2024-01-27T07:47:22;18.20;;;3.00;;
18879;SDS011;9572;52.378;13.404;2024-01-27T07:49:49;16.97;;;2.63;;
18879;SDS011;9572;52.378;13.404;2024-01-27T07:52:17;24.70;;;2.93;;
18879;SDS011;9572;52.378;13.404;2024-01-27T07:54:44;17.07;;;3.60;;
18879;SDS011;9572;52.378;13.404;2024-01-27T07:57:11;22.37;;;3.00;;
18879;SDS011;9572;52.378;13.404;2024-01-27T07:59:38;20.20;;;3.00;;
18879;SDS011;9572;52.378;13.404;2024-01-27T08:02:05;18.63;;;2.70;;
18879;SDS011;9572;52.378;13.404;2024-01-27T08:04:32;20.13;;;3.03;;
18879;SDS011;9572;52.378;13.404;2024-01-27T08:06:59;29.17;;;3.47;;
18879;SDS011;9572;52.378;13.404;2024-01-27T08:09:32;8.93;;;2.37;;
18879;SDS011;9572;52.378;13.404;2024-01-27T08:11:59;17.00;;;2.93;;
18879;SDS011;9572;52.378;13.404;2024-01-27T08:14:27;17.27;;;2.33;;
18879;SDS011;9572;52.378;13.404;2024-01-27T08:16:55;18.50;;;3.50;;
18879;SDS011;9572;52.378;13.404;2024-01-27T08:19:21;24.47;;;3.93;;
18879;SDS011;9572;52.378;13.404;2024-01-27T08:21:49;17.23;;;3.00;;
18879;SDS011;9572;52.378;13.404;2024-01-27T08:24:16;22.67;;;3.50;;
18879;SDS011;9572;52.378;13.404;2024-01-27T08:26:44;19.60;;;3.70;;
18879;SDS011;9572;52.378;13.404;2024-01-27T08:29:13;26.20;;;3.53;;
18879;SDS011;9572;52.378;13.404;2024-01-27T08:31:40;19.73;;;2.93;;
18879;SDS011;9572;52.378;13.404;2024-01-27T08:34:07;14.80;;;3.20;;
18879;SDS011;9572;52.378;13.404;2024-01-27T08:36:34;18.77;;;2.70;;
18879;SDS011;9572;52.378;13.404;2024-01-27T08:39:01;13.63;;;2.60;;
18879;SDS011;9572;52.378;13.404;2024-01-27T08:41:28;17.80;;;2.67;;
18879;SDS011;9572;52.378;13.404;2024-01-27T08:43:56;19.53;;;2.50;;
18879;SDS011;9572;52.378;13.404;2024-01-27T08:46:23;19.83;;;2.80;;
18879;SDS011;9572;52.378;13.404;2024-01-27T08:48:50;22.57;;;3.00;;
18879;SDS011;9572;52.378;13.404;2024-01-27T08:51:17;20.13;;;2.60;;
18879;SDS011;9572;52.378;13.404;2024-01-27T08:53:44;16.70;;;2.57;;
18879;SDS011;9572;52.378;13.404;2024-01-27T08:56:14;12.87;;;2.37;;
18879;SDS011;9572;52.378;13.404;2024-01-27T08:58:41;22.50;;;2.30;;
18879;SDS011;9572;52.378;13.404;2024-01-27T09:01:09;19.70;;;3.30;;
18879;SDS011;9572;52.378;13.404;2024-01-27T09:03:38;21.63;;;2.87;;
18879;SDS011;9572;52.378;13.404;2024-01-27T09:06:05;17.93;;;3.07;;
18879;SDS011;9572;52.378;13.404;2024-01-27T09:08:33;14.57;;;2.50;;
18879;SDS011;9572;52.378;13.404;2024-01-27T09:10:59;15.93;;;2.67;;
18879;SDS011;9572;52.378;13.404;2024-01-27T09:13:27;22.30;;;3.37;;
18879;SDS011;9572;52.378;13.404;2024-01-27T09:15:54;26.47;;;3.67;;
18879;SDS011;9572;52.378;13.404;2024-01-27T09:18:22;20.03;;;3.23;;
18879;SDS011;9572;52.378;13.404;2024-01-27T09:20:49;18.27;;;2.77;;
18879;SDS011;9572;52.378;13.404;2024-01-27T09:23:16;15.87;;;2.37;;
18879;SDS011;9572;52.378;13.404;2024-01-27T09:25:43;20.37;;;3.97;;
18879;SDS011;9572;52.378;13.404;2024-01-27T09:28:10;12.63;;;3.17;;
18879;SDS011;9572;52.378;13.404;2024-01-27T09:30:37;18.30;;;3.03;;
18879;SDS011;9572;52.378;13.404;2024-01-27T09:33:04;17.23;;;2.70;;
18879;SDS011;9572;52.378;13.404;2024-01-27T09:35:32;16.47;;;2.67;;
18879;SDS011;9572;52.378;13.404;2024-01-27T09:37:59;14.50;;;2.93;;
18879;SDS011;9572;52.378;13.404;2024-01-27T09:40:26;19.80;;;3.03;;
18879;SDS011;9572;52.378;13.404;2024-01-27T09:42:53;23.10;;;3.50;;
18879;SDS011;9572;52.378;13.404;2024-01-27T09:45:24;20.53;;;3.07;;
18879;SDS011;9572;52.378;13.404;2024-01-27T09:47:51;26.17;;;3.30;;
18879;SDS011;9572;52.378;13.404;2024-01-27T09:50:20;29.13;;;3.97;;
18879;SDS011;9572;52.378;13.404;2024-01-27T09:52:49;16.83;;;2.83;;
18879;SDS011;9572;52.378;13.404;2024-01-27T09:55:16;18.33;;;3.30;;
18879;SDS011;9572;52.378;13.404;2024-01-27T09:57:43;19.83;;;3.07;;
18879;SDS011;9572;52.378;13.404;2024-01-27T10:00:11;22.20;;;3.10;;
18879;SDS011;9572;52.378;13.404;2024-01-27T10:02:41;23.97;;;3.07;;
18879;SDS011;9572;52.378;13.404;2024-01-27T10:05:09;23.53;;;3.60;;
18879;SDS011;9572;52.378;13.404;2024-01-27T10:07:37;16.73;;;3.37;;
18879;SDS011;9572;52.378;13.404;2024-01-27T10:10:06;22.57;;;3.77;;
18879;SDS011;9572;52.378;13.404;2024-01-27T10:12:34;19.77;;;3.43;;
18879;SDS011;9572;52.378;13.404;2024-01-27T10:15:08;21.47;;;4.27;;
18879;SDS011;9572;52.378;13.404;2024-01-27T10:17:45;14.97;;;2.70;;
18879;SDS011;9572;52.378;13.404;2024-01-27T10:20:12;22.87;;;3.47;;
18879;SDS011;9572;52.378;13.404;2024-01-27T10:22:40;17.07;;;3.00;;
18879;SDS011;9572;52.378;13.404;2024-01-27T10:25:10;26.33;;;3.30;;
18879;SDS011;9572;52.378;13.404;2024-01-27T10:27:37;20.03;;;3.40;;
18879;SDS011;9572;52.378;13.404;2024-01-27T10:30:05;24.13;;;3.90;;
18879;SDS011;9572;52.378;13.404;2024-01-27T10:32:40;17.50;;;3.63;;
18879;SDS011;9572;52.378;13.404;2024-01-27T10:35:07;21.73;;;3.17;;
18879;SDS011;9572;52.378;13.404;2024-01-27T10:37:34;24.03;;;4.23;;
18879;SDS011;9572;52.378;13.404;2024-01-27T10:40:02;24.23;;;3.60;;
18879;SDS011;9572;52.378;13.404;2024-01-27T10:42:31;16.07;;;3.13;;
18879;SDS011;9572;52.378;13.404;2024-01-27T10:44:58;24.97;;;3.63;;
18879;SDS011;9572;52.378;13.404;2024-01-27T10:47:26;17.47;;;3.40;;
18879;SDS011;9572;52.378;13.404;2024-01-27T10:49:54;17.80;;;3.57;;
18879;SDS011;9572;52.378;13.404;2024-01-27T10:52:23;13.17;;;2.73;;
18879;SDS011;9572;52.378;13.404;2024-01-27T10:54:54;20.87;;;3.77;;
18879;SDS011;9572;52.378;13.404;2024-01-27T10:57:25;27.30;;;3.63;;
18879;SDS011;9572;52.378;13.404;2024-01-27T10:59:54;16.80;;;3.27;;
18879;SDS011;9572;52.378;13.404;2024-01-27T11:02:22;22.47;;;3.70;;
18879;SDS011;9572;52.378;13.404;2024-01-27T11:04:50;17.47;;;4.17;;
18879;SDS011;9572;52.378;13.404;2024-01-27T11:07:18;18.43;;;2.70;;
18879;SDS011;9572;52.378;13.404;2024-01-27T11:09:48;22.30;;;3.13;;
18879;SDS011;9572;52.378;13.404;2024-01-27T11:12:16;24.80;;;4.30;;
18879;SDS011;9572;52.378;13.404;2024-01-27T11:14:46;16.73;;;3.90;;
18879;SDS011;9572;52.378;13.404;2024-01-27T11:17:14;28.93;;;4.50;;
18879;SDS011;9572;52.378;13.404;2024-01-27T11:19:42;18.10;;;3.27;;
18879;SDS011;9572;52.378;13.404;2024-01-27T11:22:17;27.40;;;3.47;;
18879;SDS011;9572;52.378;13.404;2024-01-27T11:24:51;19.93;;;4.07;;
18879;SDS011;9572;52.378;13.404;2024-01-27T11:27:18;19.00;;;3.70;;
18879;SDS011;9572;52.378;13.404;2024-01-27T11:29:53;18.20;;;3.80;;
18879;SDS011;9572;52.378;13.404;2024-01-27T11:32:21;32.87;;;4.57;;
18879;SDS011;9572;52.378;13.404;2024-01-27T11:34:48;18.80;;;3.53;;
18879;SDS011;9572;52.378;13.404;2024-01-27T11:37:15;17.43;;;3.20;;
18879;SDS011;9572;52.378;13.404;2024-01-27T11:39:45;16.97;;;3.00;;
18879;SDS011;9572;52.378;13.404;2024-01-27T11:42:12;18.93;;;3.37;;
18879;SDS011;9572;52.378;13.404;2024-01-27T11:44:39;18.90;;;3.50;;
18879;SDS011;9572;52.378;13.404;2024-01-27T11:47:13;21.40;;;3.77;;
18879;SDS011;9572;52.378;13.404;2024-01-27T11:49:42;19.50;;;4.40;;
18879;SDS011;9572;52.378;13.404;2024-01-27T11:52:09;17.97;;;3.87;;
18879;SDS011;9572;52.378;13.404;2024-01-27T11:54:36;20.17;;;4.00;;
18879;SDS011;9572;52.378;13.404;2024-01-27T11:57:04;17.53;;;3.80;;
18879;SDS011;9572;52.378;13.404;2024-01-27T11:59:31;18.80;;;4.07;;
18879;SDS011;9572;52.378;13.404;2024-01-27T12:02:00;27.30;;;4.10;;
18879;SDS011;9572;52.378;13.404;2024-01-27T12:04:27;18.33;;;3.87;;
18879;SDS011;9572;52.378;13.404;2024-01-27T12:06:56;18.87;;;3.30;;
18879;SDS011;9572;52.378;13.404;2024-01-27T12:09:22;19.50;;;3.97;;
18879;SDS011;9572;52.378;13.404;2024-01-27T12:11:49;15.13;;;3.93;;
18879;SDS011;9572;52.378;13.404;2024-01-27T12:14:16;13.53;;;3.83;;
18879;SDS011;9572;52.378;13.404;2024-01-27T12:16:43;21.43;;;4.47;;
18879;SDS011;9572;52.378;13.404;2024-01-27T12:19:12;21.13;;;4.07;;
18879;SDS011;9572;52.378;13.404;2024-01-27T12:21:46;15.47;;;3.70;;
18879;SDS011;9572;52.378;13.404;2024-01-27T12:24:16;19.83;;;3.53;;
18879;SDS011;9572;52.378;13.404;2024-01-27T12:26:44;21.57;;;4.13;;
18879;SDS011;9572;52.378;13.404;2024-01-27T12:29:11;15.43;;;3.37;;
18879;SDS011;9572;52.378;13.404;2024-01-27T12:31:38;15.43;;;3.53;;
18879;SDS011;9572;52.378;13.404;2024-01-27T12:34:05;19.30;;;3.83;;
18879;SDS011;9572;52.378;13.404;2024-01-27T12:36:39;22.37;;;3.97;;
18879;SDS011;9572;52.378;13.404;2024-01-27T12:39:07;21.00;;;3.83;;
18879;SDS011;9572;52.378;13.404;2024-01-27T12:41:36;21.80;;;4.30;;
18879;SDS011;9572;52.378;13.404;2024-01-27T12:44:02;16.00;;;4.07;;
18879;SDS011;9572;52.378;13.404;2024-01-27T12:46:30;20.43;;;3.90;;
18879;SDS011;9572;52.378;13.404;2024-01-27T12:48:57;16.07;;;3.70;;
18879;SDS011;9572;52.378;13.404;2024-01-27T12:51:24;26.50;;;4.33;;
18879;SDS011;9572;52.378;13.404;2024-01-27T12:53:51;21.97;;;3.90;;
18879;SDS011;9572;52.378;13.404;2024-01-27T12:56:18;18.23;;;4.20;;
18879;SDS011;9572;52.378;13.404;2024-01-27T12:58:46;15.50;;;3.67;;
18879;SDS011;9572;52.378;13.404;2024-01-27T13:01:13;18.27;;;3.90;;
18879;SDS011;9572;52.378;13.404;2024-01-27T13:03:40;15.17;;;4.00;;
18879;SDS011;9572;52.378;13.404;2024-01-27T13:06:07;20.57;;;3.80;;
18879;SDS011;9572;52.378;13.404;2024-01-27T13:08:35;19.77;;;3.57;;
18879;SDS011;9572;52.378;13.404;2024-01-27T13:11:03;20.60;;;4.53;;
18879;SDS011;9572;52.378;13.404;2024-01-27T13:13:30;28.67;;;3.90;;
18879;SDS011;9572;52.378;13.404;2024-01-27T13:15:58;23.70;;;3.87;;
18879;SDS011;9572;52.378;13.404;2024-01-27T13:18:25;21.93;;;3.70;;
18879;SDS011;9572;52.378;13.404;2024-01-27T13:20:52;12.67;;;3.27;;
18879;SDS011;9572;52.378;13.404;2024-01-27T13:23:19;13.77;;;3.20;;
18879;SDS011;9572;52.378;13.404;2024-01-27T13:25:45;17.87;;;3.67;;
18879;SDS011;9572;52.378;13.404;2024-01-27T13:28:12;12.43;;;3.50;;
18879;SDS011;9572;52.378;13.404;2024-01-27T13:30:39;20.80;;;4.03;;
18879;SDS011;9572;52.378;13.404;2024-01-27T13:33:08;16.27;;;3.93;;
18879;SDS011;9572;52.378;13.404;2024-01-27T13:35:36;20.50;;;3.43;;
18879;SDS011;9572;52.378;13.404;2024-01-27T13:38:05;11.33;;;2.97;;
18879;SDS011;9572;52.378;13.404;2024-01-27T13:40:32;13.77;;;3.17;;
18879;SDS011;9572;52.378;13.404;2024-01-27T13:42:58;16.10;;;3.50;;
18879;SDS011;9572;52.378;13.404;2024-01-27T13:45:26;21.53;;;3.50;;
18879;SDS011;9572;52.378;13.404;2024-01-27T13:47:53;13.73;;;2.83;;
18879;SDS011;9572;52.378;13.404;2024-01-27T13:50:21;18.80;;;3.50;;
18879;SDS011;9572;52.378;13.404;2024-01-27T13:52:48;20.50;;;3.87;;
18879;SDS011;9572;52.378;13.404;2024-01-27T13:55:14;14.77;;;3.40;;
18879;SDS011;9572;52.378;13.404;2024-01-27T13:57:41;18.83;;;3.57;;
18879;SDS011;9572;52.378;13.404;2024-01-27T14:00:10;11.37;;;3.17;;
18879;SDS011;9572;52.378;13.404;2024-01-27T14:02:37;16.57;;;3.57;;
18879;SDS011;9572;52.378;13.404;2024-01-27T14:05:05;12.27;;;2.80;;
18879;SDS011;9572;52.378;13.404;2024-01-27T14:07:33;14.77;;;3.07;;
18879;SDS011;9572;52.378;13.404;2024-01-27T14:10:00;16.93;;;3.37;;
18879;SDS011;9572;52.378;13.404;2024-01-27T14:12:27;16.53;;;2.87;;
18879;SDS011;9572;52.378;13.404;2024-01-27T14:14:55;15.87;;;2.87;;
18879;SDS011;9572;52.378;13.404;2024-01-27T14:17:32;20.13;;;2.93;;
18879;SDS011;9572;52.378;13.404;2024-01-27T14:19:59;17.03;;;3.27;;
18879;SDS011;9572;52.378;13.404;2024-01-27T14:22:26;18.27;;;3.27;;
18879;SDS011;9572;52.378;13.404;2024-01-27T14:24:55;14.33;;;3.13;;
18879;SDS011;9572;52.378;13.404;2024-01-27T14:27:22;17.30;;;3.17;;
18879;SDS011;9572;52.378;13.404;2024-01-27T14:29:51;16.50;;;3.57;;
18879;SDS011;9572;52.378;13.404;2024-01-27T14:32:19;13.70;;;2.63;;
18879;SDS011;9572;52.378;13.404;2024-01-27T14:34:46;22.13;;;4.53;;
18879;SDS011;9572;52.378;13.404;2024-01-27T14:37:13;20.67;;;3.13;;